Terminal Aerodrome Forecast
Issued by NWS

Home | Current Version | Previous Version | Graphics & Text | Print | Product List | Glossary On
Versions: 1 2 3 4 5 6 7 8 9 10 11 12 13 14 15 16 17 18
000
FTUS41 KCLE 152332
TAFFDY
TAF
KFDY 152332Z 1600/1624 23012G20KT P6SM VCSH OVC010
      TEMPO 1600/1603 6SM BR OVC009
     FM160300 25012G20KT P6SM SCT007 OVC015
      TEMPO 1603/1606 OVC025
     FM160600 27015G25KT P6SM SCT020 OVC035
     FM161800 30012G20KT P6SM BKN035=

USA.gov is the U.S. government's official web portal to all federal, state and local government web resources and services.